Limbricht, Netherlands
Current Conditions -  °F | °C
As of 9:55 PM on Saturday 25 Oct 2014 (Local Time) from EHBK Reporting Station
Overcast Overcast  
Wind Chill: 48°   Ceiling: 4000
Heat Index: 48°   Visibility: 4mi
Dew Point: 48°   Wind: 3mph
Humidity: 100%   Direction: 190°S
Pressure: 30.18"   Gusts: NA
Location:  51.01°N, 5.84°E
Report Text: EHBK 251955Z AUTO 19003KT 6000 OVC040 09/09 Q1022 TEMPO 3500
Loading
Personal Weather Stations






























Interactive Weather Map
Tropical Storm Tracking
New forecast layout! Learn more

10-Day Weather Forecast

Advertisements
Track Severe Weather on mobile